createdAt,value
2019-03-18T00:00:05.752Z,4.00
2019-03-18T00:02:34.822Z,4.26
2019-03-18T00:05:03.849Z,4.12
2019-03-18T00:07:32.838Z,3.93
2019-03-18T00:10:01.843Z,3.93
2019-03-18T00:12:30.830Z,3.71
2019-03-18T00:15:01.505Z,3.74
2019-03-18T00:17:30.990Z,3.70
2019-03-18T00:20:00.006Z,3.79
2019-03-18T00:22:28.995Z,3.69
2019-03-18T00:24:58.061Z,3.96
2019-03-18T00:27:27.425Z,3.98
2019-03-18T00:29:56.445Z,3.76
2019-03-18T00:32:25.495Z,3.72
2019-03-18T00:34:54.540Z,3.91
2019-03-18T00:37:23.870Z,3.84
2019-03-18T00:39:52.916Z,3.85
2019-03-18T00:42:22.629Z,3.84
2019-03-18T00:44:51.638Z,4.07
2019-03-18T00:47:20.684Z,4.28
2019-03-18T00:49:50.009Z,4.23
2019-03-18T00:52:19.401Z,4.13
2019-03-18T00:54:49.011Z,3.99
2019-03-18T00:57:18.057Z,3.91
2019-03-18T00:59:47.417Z,3.83
2019-03-18T01:02:16.726Z,3.75
2019-03-18T01:04:45.700Z,3.63
2019-03-18T01:07:15.065Z,3.72
2019-03-18T01:09:44.420Z,3.99
2019-03-18T01:12:13.479Z,3.67
2019-03-18T01:14:42.468Z,3.56
2019-03-18T01:17:11.500Z,3.60
2019-03-18T01:19:40.778Z,3.50
2019-03-18T01:22:10.232Z,3.60
2019-03-18T01:24:40.740Z,3.42
2019-03-18T01:27:09.781Z,3.63
2019-03-18T01:29:39.146Z,3.50
2019-03-18T01:32:08.423Z,3.56
2019-03-18T01:34:37.458Z,3.65
2019-03-18T01:37:06.840Z,3.87
2019-03-18T01:39:35.884Z,3.79
2019-03-18T01:42:04.915Z,3.88
2019-03-18T01:44:34.220Z,4.08
2019-03-18T01:47:03.558Z,3.85
2019-03-18T01:49:32.932Z,3.98
2019-03-18T01:52:01.926Z,3.88
2019-03-18T01:54:31.260Z,3.63
2019-03-18T01:57:00.281Z,3.71
2019-03-18T01:59:29.335Z,3.61
2019-03-18T02:01:58.374Z,3.63
2019-03-18T02:04:27.514Z,3.81
2019-03-18T02:06:56.517Z,3.62
2019-03-18T02:09:25.849Z,3.52
2019-03-18T02:11:54.945Z,3.40
2019-03-18T02:14:24.314Z,3.34
2019-03-18T02:16:53.360Z,3.29
2019-03-18T02:19:22.374Z,3.28
2019-03-18T02:21:51.404Z,3.50
2019-03-18T02:24:20.682Z,3.43
2019-03-18T02:26:49.733Z,3.46
2019-03-18T02:29:18.741Z,3.55
2019-03-18T02:31:47.756Z,3.62
2019-03-18T02:34:17.129Z,3.53
2019-03-18T02:36:46.153Z,3.64
2019-03-18T02:39:15.520Z,3.61
2019-03-18T02:41:45.184Z,3.39
2019-03-18T02:44:14.193Z,3.48
2019-03-18T02:46:43.239Z,3.55
2019-03-18T02:49:12.604Z,3.64
2019-03-18T02:51:41.641Z,3.66
2019-03-18T02:54:10.988Z,3.63
2019-03-18T02:56:40.017Z,3.57
2019-03-18T02:59:09.004Z,3.55
2019-03-18T03:01:38.054Z,3.59
2019-03-18T03:04:07.462Z,3.70
2019-03-18T03:06:36.472Z,3.74
2019-03-18T03:09:07.750Z,3.99
2019-03-18T03:11:36.779Z,3.91
2019-03-18T03:14:05.777Z,4.03
2019-03-18T03:16:34.817Z,3.93
2019-03-18T03:19:03.805Z,3.97
2019-03-18T03:21:33.157Z,4.05
2019-03-18T03:24:02.538Z,4.08
2019-03-18T03:26:31.536Z,4.06
2019-03-18T03:29:00.924Z,4.12
2019-03-18T03:31:30.097Z,4.23
2019-03-18T03:33:59.135Z,3.89
2019-03-18T03:36:28.772Z,3.82
2019-03-18T03:38:57.793Z,3.58
2019-03-18T03:41:26.846Z,3.63
2019-03-18T03:43:55.930Z,3.73
2019-03-18T03:46:25.099Z,3.81
2019-03-18T03:48:54.097Z,3.97
2019-03-18T03:51:23.075Z,4.22
2019-03-18T03:53:52.185Z,4.12
2019-03-18T03:56:21.205Z,3.86
2019-03-18T03:58:50.221Z,3.97
2019-03-18T04:01:19.202Z,3.97
2019-03-18T04:03:48.905Z,4.00
2019-03-18T04:06:18.061Z,3.84
2019-03-18T04:08:47.391Z,3.79
2019-03-18T04:11:16.764Z,3.84
2019-03-18T04:13:45.794Z,3.97
2019-03-18T04:16:14.835Z,3.97
2019-03-18T04:18:43.843Z,3.93
2019-03-18T04:21:12.873Z,4.11
2019-03-18T04:23:41.884Z,4.03
2019-03-18T04:26:11.233Z,4.01
2019-03-18T04:28:40.248Z,3.96
2019-03-18T04:31:09.536Z,3.76
2019-03-18T04:33:39.345Z,3.79
2019-03-18T04:36:08.581Z,3.76
2019-03-18T04:38:37.587Z,3.85
2019-03-18T04:41:06.989Z,3.80
2019-03-18T04:43:35.972Z,3.79
2019-03-18T04:46:05.040Z,3.95
2019-03-18T04:48:34.189Z,4.04
2019-03-18T04:51:03.291Z,3.92
2019-03-18T04:53:32.304Z,4.00
2019-03-18T04:56:01.458Z,3.81
2019-03-18T04:58:30.543Z,3.78
2019-03-18T05:00:59.542Z,3.76
2019-03-18T05:03:28.842Z,3.73
2019-03-18T05:05:58.493Z,3.77
2019-03-18T05:08:27.507Z,3.66
2019-03-18T05:10:56.526Z,3.71
2019-03-18T05:13:26.605Z,3.70
2019-03-18T05:15:55.729Z,3.57
2019-03-18T05:18:24.759Z,3.45
2019-03-18T05:20:54.205Z,3.48
2019-03-18T05:23:23.683Z,3.38
2019-03-18T05:25:53.135Z,3.33
2019-03-18T05:28:22.493Z,3.18
2019-03-18T05:30:51.513Z,3.10
2019-03-18T05:33:20.941Z,3.06
2019-03-18T05:35:50.383Z,3.12
2019-03-18T05:38:19.804Z,3.15
2019-03-18T05:40:49.153Z,3.27
2019-03-18T05:43:19.385Z,3.23
2019-03-18T05:45:48.397Z,3.18
2019-03-18T05:48:17.434Z,3.37
2019-03-18T05:50:46.441Z,3.52
2019-03-18T05:53:15.459Z,3.66
2019-03-18T05:55:44.765Z,3.73
2019-03-18T05:58:14.164Z,3.63
2019-03-18T06:00:43.469Z,3.60
2019-03-18T06:03:12.475Z,3.81
2019-03-18T06:05:41.505Z,3.79
2019-03-18T06:08:11.771Z,3.82
2019-03-18T06:10:41.031Z,3.90
2019-03-18T06:13:10.408Z,3.95
2019-03-18T06:15:39.511Z,3.99
2019-03-18T06:18:08.537Z,4.04
2019-03-18T06:20:37.560Z,4.20
2019-03-18T06:23:06.626Z,4.22
2019-03-18T06:25:35.660Z,4.12
2019-03-18T06:28:04.957Z,4.21
2019-03-18T06:30:34.363Z,4.11
2019-03-18T06:33:03.985Z,4.05
2019-03-18T06:35:33.305Z,4.10
2019-03-18T06:38:02.347Z,4.03
2019-03-18T06:40:31.396Z,4.04
2019-03-18T06:43:00.443Z,4.15
2019-03-18T06:45:29.473Z,4.35
2019-03-18T06:48:04.852Z,4.35
2019-03-18T06:50:29.394Z,4.40
2019-03-18T06:52:58.409Z,4.40
2019-03-18T06:55:27.809Z,4.44
2019-03-18T06:57:57.189Z,4.57
2019-03-18T07:00:27.023Z,4.55
2019-03-18T07:02:57.011Z,4.64
2019-03-18T07:05:26.045Z,4.61
2019-03-18T07:07:55.074Z,4.71
2019-03-18T07:10:24.397Z,4.74
2019-03-18T07:12:53.433Z,4.80
2019-03-18T07:15:22.464Z,4.75
2019-03-18T07:17:51.789Z,4.92
2019-03-18T07:20:20.826Z,4.94
2019-03-18T07:22:49.857Z,4.94
2019-03-18T07:25:18.883Z,5.14
2019-03-18T07:27:47.901Z,5.15
2019-03-18T07:30:16.917Z,5.29
2019-03-18T07:32:45.961Z,5.47
2019-03-18T07:35:14.989Z,5.53
2019-03-18T07:37:44.010Z,5.73
2019-03-18T07:40:13.031Z,5.82
2019-03-18T07:42:42.362Z,5.98
2019-03-18T07:45:12.063Z,6.15
2019-03-18T07:47:41.455Z,6.45
2019-03-18T07:50:10.955Z,6.66
2019-03-18T07:52:39.963Z,6.90
2019-03-18T07:55:09.770Z,7.04
2019-03-18T07:57:39.109Z,7.17
2019-03-18T08:00:09.039Z,7.39
2019-03-18T08:02:38.391Z,7.43
2019-03-18T08:05:08.279Z,7.46
2019-03-18T08:07:37.329Z,7.51
2019-03-18T08:10:06.940Z,7.53
2019-03-18T08:12:35.967Z,7.39
2019-03-18T08:15:05.031Z,7.64
2019-03-18T08:17:34.444Z,7.76
2019-03-18T08:20:03.928Z,7.97
2019-03-18T08:22:33.314Z,8.03
2019-03-18T08:25:02.342Z,8.30
2019-03-18T08:27:32.109Z,8.58
2019-03-18T08:30:01.143Z,8.52
2019-03-18T08:32:30.169Z,8.55
2019-03-18T08:34:59.193Z,8.73
2019-03-18T08:37:28.599Z,9.07
2019-03-18T08:39:57.966Z,8.75
2019-03-18T08:42:27.009Z,8.70
2019-03-18T08:44:56.405Z,8.81
2019-03-18T08:47:25.429Z,8.75
2019-03-18T08:49:54.471Z,8.76
2019-03-18T08:52:23.830Z,9.10
2019-03-18T08:54:52.883Z,9.12
2019-03-18T08:57:21.907Z,9.19
2019-03-18T08:59:50.956Z,9.27
2019-03-18T09:02:20.015Z,9.40
2019-03-18T09:04:49.029Z,9.17
2019-03-18T09:07:18.395Z,9.13
2019-03-18T09:09:47.443Z,9.01
2019-03-18T09:12:16.514Z,8.89
2019-03-18T09:14:45.533Z,8.99
2019-03-18T09:17:14.895Z,9.13
2019-03-18T09:19:43.929Z,9.52
2019-03-18T09:22:12.979Z,9.59
2019-03-18T09:24:42.053Z,9.83
2019-03-18T09:27:11.087Z,9.96
2019-03-18T09:29:40.475Z,10.28
2019-03-18T09:32:09.807Z,10.79
2019-03-18T09:34:39.141Z,10.69
2019-03-18T09:37:08.751Z,10.86
2019-03-18T09:39:38.151Z,11.49
2019-03-18T09:42:07.171Z,12.99
2019-03-18T09:44:36.179Z,12.47
2019-03-18T09:47:05.220Z,12.25
2019-03-18T09:49:34.235Z,12.24
2019-03-18T09:52:03.260Z,12.46
2019-03-18T09:54:32.256Z,12.06
2019-03-18T09:57:01.312Z,12.51
2019-03-18T09:59:30.391Z,14.36
2019-03-18T10:01:59.401Z,14.14
2019-03-18T10:04:28.453Z,13.71
2019-03-18T10:06:57.471Z,14.71
2019-03-18T10:09:26.499Z,14.08
2019-03-18T10:11:55.499Z,14.50
2019-03-18T10:14:24.489Z,15.35
2019-03-18T10:16:53.529Z,14.54
2019-03-18T10:19:33.114Z,14.75
2019-03-18T10:21:53.620Z,14.92
2019-03-18T10:24:22.619Z,14.65
2019-03-18T10:26:51.673Z,14.48
2019-03-18T10:29:21.083Z,14.65
2019-03-18T10:31:50.116Z,13.57
2019-03-18T10:34:19.126Z,14.41
2019-03-18T10:36:48.442Z,14.34
2019-03-18T10:39:17.515Z,14.08
2019-03-18T10:41:47.209Z,12.63
2019-03-18T10:44:16.199Z,12.44
2019-03-18T10:46:45.265Z,12.10
2019-03-18T10:49:14.276Z,11.73
2019-03-18T10:51:43.303Z,11.66
2019-03-18T10:54:12.321Z,11.41
2019-03-18T10:56:41.675Z,11.15
2019-03-18T10:59:11.123Z,10.95
2019-03-18T11:01:40.169Z,10.61
2019-03-18T11:04:09.193Z,10.28
2019-03-18T11:06:38.233Z,9.22
2019-03-18T11:09:08.047Z,9.22
2019-03-18T11:11:37.098Z,8.88
2019-03-18T11:14:06.479Z,7.93
2019-03-18T11:16:36.186Z,7.39
2019-03-18T11:19:05.595Z,7.20
2019-03-18T11:21:34.613Z,7.83
2019-03-18T11:24:03.625Z,8.07
2019-03-18T11:26:32.662Z,8.74
2019-03-18T11:29:01.758Z,8.97
2019-03-18T11:31:31.116Z,9.14
2019-03-18T11:34:00.509Z,10.11
2019-03-18T11:36:31.608Z,9.91
2019-03-18T11:39:00.293Z,9.94
2019-03-18T11:41:29.329Z,9.19
2019-03-18T11:43:58.790Z,9.27
2019-03-18T11:46:28.107Z,8.68
2019-03-18T11:48:57.188Z,8.66
2019-03-18T11:51:26.174Z,8.64
2019-03-18T11:53:55.215Z,8.87
2019-03-18T11:56:24.314Z,9.05
2019-03-18T11:58:53.352Z,9.89
2019-03-18T12:01:22.385Z,11.29
2019-03-18T12:03:51.764Z,11.21
2019-03-18T12:06:20.799Z,11.73
2019-03-18T12:08:50.264Z,11.73
2019-03-18T12:11:19.267Z,12.58
2019-03-18T12:13:48.282Z,12.82
2019-03-18T12:16:17.308Z,13.44
2019-03-18T12:18:46.340Z,14.65
2019-03-18T12:21:16.176Z,15.04
2019-03-18T12:23:45.172Z,16.23
2019-03-18T12:26:14.192Z,15.62
2019-03-18T12:28:43.589Z,15.70
2019-03-18T12:31:12.599Z,15.57
2019-03-18T12:33:41.986Z,15.09
2019-03-18T12:36:11.281Z,15.72
2019-03-18T12:38:40.313Z,15.00
2019-03-18T12:41:09.714Z,15.11
2019-03-18T12:43:39.084Z,15.75
2019-03-18T12:46:08.116Z,15.04
2019-03-18T12:48:37.129Z,14.08
2019-03-18T12:51:06.158Z,13.31
2019-03-18T12:53:35.178Z,13.04
2019-03-18T12:56:04.553Z,13.23
2019-03-18T12:58:33.990Z,13.58
2019-03-18T13:01:12.127Z,14.89
2019-03-18T13:03:34.062Z,15.29
2019-03-18T13:06:03.586Z,14.02
2019-03-18T13:08:32.645Z,13.31
2019-03-18T13:11:01.794Z,12.32
2019-03-18T13:13:30.795Z,12.23
2019-03-18T13:15:59.860Z,12.17
2019-03-18T13:18:29.222Z,12.02
2019-03-18T13:21:07.343Z,12.02
2019-03-18T13:23:29.036Z,11.78
2019-03-18T13:25:58.047Z,11.61
2019-03-18T13:28:27.089Z,10.96
2019-03-18T13:30:56.436Z,10.62
2019-03-18T13:33:25.451Z,10.72
2019-03-18T13:35:54.873Z,10.85
2019-03-18T13:38:24.277Z,10.87
2019-03-18T13:40:53.324Z,10.90
2019-03-18T13:43:22.337Z,11.19
2019-03-18T13:45:55.541Z,12.76
2019-03-18T13:48:22.468Z,12.76
2019-03-18T13:50:51.540Z,14.77
2019-03-18T13:53:20.644Z,15.61
2019-03-18T13:55:49.676Z,17.11
2019-03-18T13:58:18.709Z,17.47
2019-03-18T14:00:47.757Z,16.27
2019-03-18T14:03:17.104Z,15.62
2019-03-18T14:05:46.451Z,14.59
2019-03-18T14:08:15.733Z,13.45
2019-03-18T14:10:45.065Z,13.53
2019-03-18T14:13:14.330Z,13.49
2019-03-18T14:15:43.658Z,13.18
2019-03-18T14:18:12.671Z,13.74
2019-03-18T14:20:42.563Z,13.41
2019-03-18T14:23:11.607Z,13.44
2019-03-18T14:25:40.630Z,13.63
2019-03-18T14:28:09.935Z,13.92
2019-03-18T14:30:39.009Z,14.98
2019-03-18T14:33:08.051Z,14.58
2019-03-18T14:35:37.043Z,14.00
2019-03-18T14:38:06.349Z,14.42
2019-03-18T14:40:35.346Z,14.37
2019-03-18T14:43:04.703Z,15.27
2019-03-18T14:45:34.019Z,15.69
2019-03-18T14:48:03.324Z,16.00
2019-03-18T14:50:32.360Z,15.34
2019-03-18T14:53:01.653Z,14.66
2019-03-18T14:55:30.959Z,14.82
2019-03-18T14:58:00.595Z,14.66
2019-03-18T15:00:29.601Z,15.39
2019-03-18T15:02:58.635Z,15.71
2019-03-18T15:05:27.670Z,15.72
2019-03-18T15:07:56.669Z,15.82
2019-03-18T15:10:25.724Z,15.80
2019-03-18T15:12:54.745Z,15.41
2019-03-18T15:15:23.789Z,15.13
2019-03-18T15:17:52.841Z,15.27
2019-03-18T15:20:22.025Z,15.01
2019-03-18T15:22:51.045Z,15.31
2019-03-18T15:25:21.011Z,15.07
2019-03-18T15:27:50.022Z,15.56
2019-03-18T15:30:19.390Z,15.14
2019-03-18T15:32:48.429Z,15.58
2019-03-18T15:35:17.774Z,15.48
2019-03-18T15:37:47.175Z,15.27
2019-03-18T15:40:17.212Z,14.62
2019-03-18T15:42:46.270Z,14.96
2019-03-18T15:45:15.831Z,15.00
2019-03-18T15:47:44.855Z,14.90
2019-03-18T15:50:15.858Z,14.96
2019-03-18T15:52:45.006Z,14.75
2019-03-18T15:55:14.335Z,14.63
2019-03-18T15:57:43.623Z,14.77
2019-03-18T16:00:14.477Z,14.86
2019-03-18T16:02:43.606Z,14.47
2019-03-18T16:05:12.738Z,14.43
2019-03-18T16:07:41.746Z,14.57
2019-03-18T16:10:11.215Z,14.49
2019-03-18T16:12:40.337Z,14.54
2019-03-18T16:15:10.250Z,14.76
2019-03-18T16:17:41.588Z,14.48
2019-03-18T16:20:12.060Z,14.36
2019-03-18T16:22:41.400Z,14.34
2019-03-18T16:25:11.258Z,14.39
2019-03-18T16:27:40.275Z,14.17
2019-03-18T16:30:10.966Z,14.18
2019-03-18T16:32:39.990Z,14.06
2019-03-18T16:35:09.408Z,14.11
2019-03-18T16:37:39.248Z,13.82
2019-03-18T16:40:09.414Z,13.96
2019-03-18T16:42:38.745Z,13.66
2019-03-18T16:45:08.955Z,13.69
2019-03-18T16:47:38.246Z,13.40
2019-03-18T16:50:08.940Z,13.45
2019-03-18T16:52:37.944Z,13.46
2019-03-18T16:55:07.034Z,13.18
2019-03-18T16:57:36.072Z,13.10
2019-03-18T17:00:05.444Z,13.03
2019-03-18T17:02:34.505Z,12.89
2019-03-18T17:05:03.583Z,12.85
2019-03-18T17:07:32.623Z,12.61
2019-03-18T17:10:01.700Z,12.46
2019-03-18T17:12:30.712Z,12.34
2019-03-18T17:14:59.778Z,12.12
2019-03-18T17:17:28.791Z,11.96
2019-03-18T17:19:58.148Z,11.80
2019-03-18T17:22:27.156Z,11.60
2019-03-18T17:24:56.478Z,11.66
2019-03-18T17:27:26.030Z,11.52
2019-03-18T17:29:55.372Z,11.26
2019-03-18T17:32:24.714Z,11.02
2019-03-18T17:34:53.721Z,10.95
2019-03-18T17:37:22.754Z,10.79
2019-03-18T17:39:51.798Z,10.46
2019-03-18T17:42:21.098Z,10.20
2019-03-18T17:44:50.432Z,9.91
2019-03-18T17:47:19.513Z,9.79
2019-03-18T17:49:48.890Z,9.50
2019-03-18T17:52:17.945Z,9.29
2019-03-18T17:54:46.960Z,9.25
2019-03-18T17:57:15.992Z,9.15
2019-03-18T17:59:45.014Z,8.84
2019-03-18T18:02:13.996Z,8.87
2019-03-18T18:04:43.045Z,8.72
2019-03-18T18:07:12.089Z,8.51
2019-03-18T18:09:41.398Z,8.49
2019-03-18T18:12:10.949Z,8.35
2019-03-18T18:14:40.034Z,8.35
2019-03-18T18:17:09.084Z,8.29
2019-03-18T18:19:38.125Z,8.40
2019-03-18T18:22:07.447Z,8.35
2019-03-18T18:24:37.080Z,8.30
2019-03-18T18:27:06.071Z,8.30
2019-03-18T18:29:35.671Z,8.21
2019-03-18T18:32:04.809Z,8.14
2019-03-18T18:34:33.824Z,8.08
2019-03-18T18:37:02.850Z,8.06
2019-03-18T18:39:31.921Z,7.90
2019-03-18T18:42:01.237Z,7.81
2019-03-18T18:44:30.317Z,7.73
2019-03-18T18:46:59.358Z,7.78
2019-03-18T18:49:28.426Z,7.74
2019-03-18T18:51:57.438Z,7.67
2019-03-18T18:54:26.561Z,7.66
2019-03-18T18:56:56.016Z,7.61
2019-03-18T18:59:25.337Z,7.55
2019-03-18T19:01:54.360Z,7.51
2019-03-18T19:04:23.807Z,7.53
2019-03-18T19:06:52.849Z,7.50
2019-03-18T19:09:21.859Z,7.29
2019-03-18T19:11:50.888Z,6.98
2019-03-18T19:14:20.188Z,7.05
2019-03-18T19:16:49.224Z,7.01
2019-03-18T19:19:18.256Z,6.72
2019-03-18T19:21:47.280Z,6.60
2019-03-18T19:24:16.583Z,6.55
2019-03-18T19:26:45.688Z,6.62
2019-03-18T19:29:14.812Z,6.71
2019-03-18T19:31:43.869Z,6.67
2019-03-18T19:34:12.921Z,6.63
2019-03-18T19:36:41.890Z,6.60
2019-03-18T19:39:10.912Z,6.59
2019-03-18T19:41:40.461Z,6.59
2019-03-18T19:44:09.556Z,6.57
2019-03-18T19:46:38.604Z,6.52
2019-03-18T19:49:08.006Z,6.44
2019-03-18T19:51:37.053Z,6.40
2019-03-18T19:54:06.134Z,6.39
2019-03-18T19:56:35.184Z,6.22
2019-03-18T19:59:04.279Z,6.23
2019-03-18T20:01:33.371Z,6.19
2019-03-18T20:04:02.504Z,6.10
2019-03-18T20:06:32.274Z,6.11
2019-03-18T20:09:01.396Z,6.08
2019-03-18T20:11:30.524Z,6.08
2019-03-18T20:13:59.536Z,6.07
2019-03-18T20:16:28.566Z,6.03
2019-03-18T20:18:57.614Z,5.94
2019-03-18T20:21:26.737Z,5.86
2019-03-18T20:24:01.124Z,5.62
2019-03-18T20:26:27.358Z,5.30
2019-03-18T20:28:56.654Z,5.40
2019-03-18T20:31:26.297Z,5.31
2019-03-18T20:33:55.344Z,5.32
2019-03-18T20:36:24.405Z,5.29
2019-03-18T20:38:53.437Z,5.38
2019-03-18T20:41:22.492Z,5.32
2019-03-18T20:43:51.485Z,5.30
2019-03-18T20:46:20.523Z,5.28
2019-03-18T20:48:49.995Z,5.24
2019-03-18T20:51:19.029Z,5.22
2019-03-18T20:53:48.939Z,5.21
2019-03-18T20:56:18.223Z,4.99
2019-03-18T20:58:47.277Z,5.01
2019-03-18T21:01:16.339Z,5.01
2019-03-18T21:03:45.431Z,4.99
2019-03-18T21:06:14.809Z,4.91
2019-03-18T21:08:43.876Z,4.73
2019-03-18T21:11:12.943Z,4.81
2019-03-18T21:13:41.983Z,4.79
2019-03-18T21:16:11.001Z,4.70
2019-03-18T21:18:40.289Z,4.60
2019-03-18T21:21:09.305Z,4.40
2019-03-18T21:23:38.631Z,4.45
2019-03-18T21:26:07.688Z,4.35
2019-03-18T21:28:41.152Z,4.48
2019-03-18T21:31:07.771Z,4.44
2019-03-18T21:33:37.047Z,4.45
2019-03-18T21:36:06.343Z,4.54
2019-03-18T21:38:35.635Z,4.56
2019-03-18T21:41:04.953Z,4.56
2019-03-18T21:43:34.554Z,4.55
2019-03-18T21:46:03.649Z,4.51
2019-03-18T21:48:33.177Z,4.52
2019-03-18T21:51:02.185Z,4.40
2019-03-18T21:53:31.201Z,4.41
2019-03-18T21:56:00.575Z,4.43
2019-03-18T21:58:29.625Z,4.41
2019-03-18T22:00:58.955Z,4.33
2019-03-18T22:03:28.195Z,4.25
2019-03-18T22:05:57.249Z,4.09
2019-03-18T22:08:26.281Z,4.23
2019-03-18T22:10:55.378Z,4.27
2019-03-18T22:13:24.440Z,4.35
2019-03-18T22:15:53.712Z,4.32
2019-03-18T22:18:22.787Z,4.34
2019-03-18T22:20:51.781Z,4.18
2019-03-18T22:23:20.820Z,4.11
2019-03-18T22:25:49.869Z,4.03
2019-03-18T22:28:19.199Z,3.88
2019-03-18T22:30:48.490Z,4.00
2019-03-18T22:33:17.819Z,3.95
2019-03-18T22:35:46.849Z,3.86
2019-03-18T22:38:15.883Z,3.86
2019-03-18T22:40:44.915Z,3.81
2019-03-18T22:43:14.209Z,3.82
2019-03-18T22:45:43.253Z,3.85
2019-03-18T22:48:12.261Z,3.77
2019-03-18T22:50:41.315Z,3.78
2019-03-18T22:53:10.869Z,3.75
2019-03-18T22:55:39.907Z,3.82
2019-03-18T22:58:08.929Z,3.72
2019-03-18T23:00:44.673Z,3.92
2019-03-18T23:03:13.955Z,3.82
2019-03-18T23:05:46.153Z,3.84
2019-03-18T23:08:15.190Z,3.88
2019-03-18T23:10:44.188Z,3.94
2019-03-18T23:13:13.222Z,3.95
2019-03-18T23:15:42.227Z,3.73
2019-03-18T23:18:11.289Z,3.71
2019-03-18T23:20:40.368Z,3.73
2019-03-18T23:23:09.619Z,3.68
2019-03-18T23:25:38.893Z,3.64
2019-03-18T23:28:08.187Z,3.60
2019-03-18T23:30:37.218Z,3.59
2019-03-18T23:33:06.601Z,3.52
2019-03-18T23:35:35.615Z,3.50
2019-03-18T23:38:04.619Z,3.51
2019-03-18T23:40:33.650Z,3.53
2019-03-18T23:43:02.771Z,3.45
2019-03-18T23:45:32.142Z,3.35
2019-03-18T23:48:01.141Z,3.24
2019-03-18T23:50:30.535Z,3.20
2019-03-18T23:52:59.537Z,3.17
2019-03-18T23:55:28.884Z,3.11
2019-03-18T23:57:57.912Z,3.04
